sensor_id;sensor_type;location;lat;lon;timestamp;temperature;humidity
24374;DHT22;12498;50.880;12.096;2022-11-09T00:03:47;11.40;6.70
24374;DHT22;12498;50.880;12.096;2022-11-09T00:06:13;11.40;5.30
24374;DHT22;12498;50.880;12.096;2022-11-09T00:08:39;11.40;10.60
24374;DHT22;12498;50.880;12.096;2022-11-09T00:18:30;11.40;9.70
24374;DHT22;12498;50.880;12.096;2022-11-09T00:20:55;11.50;8.50
24374;DHT22;12498;50.880;12.096;2022-11-09T00:23:21;11.50;9.70
24374;DHT22;12498;50.880;12.096;2022-11-09T00:25:47;11.50;10.10
24374;DHT22;12498;50.880;12.096;2022-11-09T00:28:13;11.50;10.10
24374;DHT22;12498;50.880;12.096;2022-11-09T00:30:40;11.50;12.30
24374;DHT22;12498;50.880;12.096;2022-11-09T00:33:06;11.50;10.60
24374;DHT22;12498;50.880;12.096;2022-11-09T00:35:31;11.40;12.60
24374;DHT22;12498;50.880;12.096;2022-11-09T00:37:57;11.50;12.30
24374;DHT22;12498;50.880;12.096;2022-11-09T00:40:23;11.40;11.30
24374;DHT22;12498;50.880;12.096;2022-11-09T00:42:48;11.50;12.60
24374;DHT22;12498;50.880;12.096;2022-11-09T00:45:14;11.50;17.80
24374;DHT22;12498;50.880;12.096;2022-11-09T00:47:40;11.50;16.20
24374;DHT22;12498;50.880;12.096;2022-11-09T00:50:06;11.50;21.10
24374;DHT22;12498;50.880;12.096;2022-11-09T00:52:32;11.50;20.50
24374;DHT22;12498;50.880;12.096;2022-11-09T00:54:57;11.60;22.90
24374;DHT22;12498;50.880;12.096;2022-11-09T00:57:23;11.50;24.30
24374;DHT22;12498;50.880;12.096;2022-11-09T00:59:48;11.70;22.80
24374;DHT22;12498;50.880;12.096;2022-11-09T01:09:33;11.50;16.80
24374;DHT22;12498;50.880;12.096;2022-11-09T01:14:24;11.60;18.70
24374;DHT22;12498;50.880;12.096;2022-11-09T01:16:50;11.50;13.10
24374;DHT22;12498;50.880;12.096;2022-11-09T01:19:16;11.60;14.20
24374;DHT22;12498;50.880;12.096;2022-11-09T01:21:41;11.70;14.00
24374;DHT22;12498;50.880;12.096;2022-11-09T01:24:08;11.60;13.60
24374;DHT22;12498;50.880;12.096;2022-11-09T01:48:54;11.50;6.50
24374;DHT22;12498;50.880;12.096;2022-11-09T01:56:40;12.30;1.80
24374;DHT22;12498;50.880;12.096;2022-11-09T01:59:11;11.50;3.40
24374;DHT22;12498;50.880;12.096;2022-11-09T02:01:40;11.60;6.70
24374;DHT22;12498;50.880;12.096;2022-11-09T02:04:14;11.60;11.40
24374;DHT22;12498;50.880;12.096;2022-11-09T02:06:42;11.70;16.20
24374;DHT22;12498;50.880;12.096;2022-11-09T02:09:25;11.50;17.10
24374;DHT22;12498;50.880;12.096;2022-11-09T02:11:52;11.60;12.60
24374;DHT22;12498;50.880;12.096;2022-11-09T02:14:19;11.50;18.00
24374;DHT22;12498;50.880;12.096;2022-11-09T02:16:47;11.50;19.20
24374;DHT22;12498;50.880;12.096;2022-11-09T02:19:12;11.40;25.00
24374;DHT22;12498;50.880;12.096;2022-11-09T02:21:38;10.60;35.50
24374;DHT22;12498;50.880;12.096;2022-11-09T02:24:04;11.70;25.90
24374;DHT22;12498;50.880;12.096;2022-11-09T02:29:00;11.50;30.50
24374;DHT22;12498;50.880;12.096;2022-11-09T02:34:00;11.50;22.60
24374;DHT22;12498;50.880;12.096;2022-11-09T02:41:20;11.30;20.70
24374;DHT22;12498;50.880;12.096;2022-11-09T02:43:47;11.40;21.30
24374;DHT22;12498;50.880;12.096;2022-11-09T02:46:25;11.40;18.10
24374;DHT22;12498;50.880;12.096;2022-11-09T02:48:53;11.50;20.30
24374;DHT22;12498;50.880;12.096;2022-11-09T02:53:45;11.30;16.40
24374;DHT22;12498;50.880;12.096;2022-11-09T02:56:11;11.40;19.30
24374;DHT22;12498;50.880;12.096;2022-11-09T02:58:36;11.10;18.60
24374;DHT22;12498;50.880;12.096;2022-11-09T03:01:02;11.30;17.10
24374;DHT22;12498;50.880;12.096;2022-11-09T03:03:27;11.30;16.10
24374;DHT22;12498;50.880;12.096;2022-11-09T03:05:53;11.30;8.70
24374;DHT22;12498;50.880;12.096;2022-11-09T03:08:18;11.40;11.10
24374;DHT22;12498;50.880;12.096;2022-11-09T03:10:44;11.30;9.10
24374;DHT22;12498;50.880;12.096;2022-11-09T03:13:09;11.30;10.60
24374;DHT22;12498;50.880;12.096;2022-11-09T03:15:35;11.40;11.00
24374;DHT22;12498;50.880;12.096;2022-11-09T03:18:02;11.30;10.90
24374;DHT22;12498;50.880;12.096;2022-11-09T03:20:28;11.30;9.30
24374;DHT22;12498;50.880;12.096;2022-11-09T03:23:00;11.40;10.50
24374;DHT22;12498;50.880;12.096;2022-11-09T03:25:26;11.40;7.40
24374;DHT22;12498;50.880;12.096;2022-11-09T03:28:05;11.30;5.90
24374;DHT22;12498;50.880;12.096;2022-11-09T03:30:31;11.40;4.80
24374;DHT22;12498;50.880;12.096;2022-11-09T03:33:02;11.30;5.20
24374;DHT22;12498;50.880;12.096;2022-11-09T03:35:28;11.50;6.90
24374;DHT22;12498;50.880;12.096;2022-11-09T03:37:53;11.40;10.80
24374;DHT22;12498;50.880;12.096;2022-11-09T03:40:19;11.50;9.10
24374;DHT22;12498;50.880;12.096;2022-11-09T03:42:46;11.40;8.50
24374;DHT22;12498;50.880;12.096;2022-11-09T03:45:13;11.50;7.00
24374;DHT22;12498;50.880;12.096;2022-11-09T03:47:42;11.40;7.70
24374;DHT22;12498;50.880;12.096;2022-11-09T03:50:08;11.40;9.10
24374;DHT22;12498;50.880;12.096;2022-11-09T03:52:35;11.40;10.50
24374;DHT22;12498;50.880;12.096;2022-11-09T03:55:01;11.40;6.00
24374;DHT22;12498;50.880;12.096;2022-11-09T03:57:26;11.50;8.30
24374;DHT22;12498;50.880;12.096;2022-11-09T03:59:52;11.40;5.40
24374;DHT22;12498;50.880;12.096;2022-11-09T04:07:10;11.40;3.60
24374;DHT22;12498;50.880;12.096;2022-11-09T04:09:36;11.50;2.30
24374;DHT22;12498;50.880;12.096;2022-11-09T04:12:02;11.50;1.00
24374;DHT22;12498;50.880;12.096;2022-11-09T04:14:27;11.50;4.30
24374;DHT22;12498;50.880;12.096;2022-11-09T04:16:53;11.60;4.50
24374;DHT22;12498;50.880;12.096;2022-11-09T04:19:19;11.60;1.00
24374;DHT22;12498;50.880;12.096;2022-11-09T04:21:44;11.60;3.20
24374;DHT22;12498;50.880;12.096;2022-11-09T04:24:10;11.60;1.00
24374;DHT22;12498;50.880;12.096;2022-11-09T04:26:35;11.60;1.00
24374;DHT22;12498;50.880;12.096;2022-11-09T04:29:01;11.60;3.90
24374;DHT22;12498;50.880;12.096;2022-11-09T04:31:26;11.60;4.30
24374;DHT22;12498;50.880;12.096;2022-11-09T04:33:52;11.60;10.70
24374;DHT22;12498;50.880;12.096;2022-11-09T04:36:17;11.70;8.70
24374;DHT22;12498;50.880;12.096;2022-11-09T04:38:43;11.60;13.10
24374;DHT22;12498;50.880;12.096;2022-11-09T04:41:09;11.60;7.70
24374;DHT22;12498;50.880;12.096;2022-11-09T04:43:34;11.70;9.40
24374;DHT22;12498;50.880;12.096;2022-11-09T04:46:01;11.70;13.40
24374;DHT22;12498;50.880;12.096;2022-11-09T04:48:27;11.60;18.40
24374;DHT22;12498;50.880;12.096;2022-11-09T04:51:02;11.70;24.80
24374;DHT22;12498;50.880;12.096;2022-11-09T04:53:29;11.60;31.30
24374;DHT22;12498;50.880;12.096;2022-11-09T04:55:55;11.60;39.50
24374;DHT22;12498;50.880;12.096;2022-11-09T04:58:21;11.50;47.90
24374;DHT22;12498;50.880;12.096;2022-11-09T05:00:46;11.50;42.90
24374;DHT22;12498;50.880;12.096;2022-11-09T05:03:12;11.50;53.70
24374;DHT22;12498;50.880;12.096;2022-11-09T05:05:38;11.50;56.70
24374;DHT22;12498;50.880;12.096;2022-11-09T05:08:05;11.50;68.50
24374;DHT22;12498;50.880;12.096;2022-11-09T05:10:31;11.50;82.10
24374;DHT22;12498;50.880;12.096;2022-11-09T05:13:08;11.50;79.40
24374;DHT22;12498;50.880;12.096;2022-11-09T05:15:34;11.50;84.10
24374;DHT22;12498;50.880;12.096;2022-11-09T05:18:00;11.50;89.80
24374;DHT22;12498;50.880;12.096;2022-11-09T05:20:27;11.30;87.30
24374;DHT22;12498;50.880;12.096;2022-11-09T05:22:52;11.60;99.90
24374;DHT22;12498;50.880;12.096;2022-11-09T05:25:36;11.70;99.90
24374;DHT22;12498;50.880;12.096;2022-11-09T05:28:02;11.90;99.90
24374;DHT22;12498;50.880;12.096;2022-11-09T05:30:27;11.90;99.90
24374;DHT22;12498;50.880;12.096;2022-11-09T05:32:53;12.00;99.90
24374;DHT22;12498;50.880;12.096;2022-11-09T05:35:19;12.30;99.90
24374;DHT22;12498;50.880;12.096;2022-11-09T05:37:48;12.20;99.90
24374;DHT22;12498;50.880;12.096;2022-11-09T05:40:15;12.30;99.90
24374;DHT22;12498;50.880;12.096;2022-11-09T05:42:41;12.30;99.90
24374;DHT22;12498;50.880;12.096;2022-11-09T05:45:08;12.20;99.90
24374;DHT22;12498;50.880;12.096;2022-11-09T05:47:38;12.30;99.90
24374;DHT22;12498;50.880;12.096;2022-11-09T05:50:05;12.40;99.90
24374;DHT22;12498;50.880;12.096;2022-11-09T05:52:31;12.20;99.90
24374;DHT22;12498;50.880;12.096;2022-11-09T05:54:56;12.40;99.90
24374;DHT22;12498;50.880;12.096;2022-11-09T05:57:22;12.30;99.90
24374;DHT22;12498;50.880;12.096;2022-11-09T05:59:48;12.30;99.90
24374;DHT22;12498;50.880;12.096;2022-11-09T06:02:13;12.30;99.90
24374;DHT22;12498;50.880;12.096;2022-11-09T06:04:42;12.40;99.90
24374;DHT22;12498;50.880;12.096;2022-11-09T06:07:08;12.30;99.90
24374;DHT22;12498;50.880;12.096;2022-11-09T06:09:33;12.50;99.90
24374;DHT22;12498;50.880;12.096;2022-11-09T06:11:59;12.10;99.90
24374;DHT22;12498;50.880;12.096;2022-11-09T06:14:24;12.60;99.90
24374;DHT22;12498;50.880;12.096;2022-11-09T06:16:50;11.80;99.90
24374;DHT22;12498;50.880;12.096;2022-11-09T06:19:16;11.80;99.90
24374;DHT22;12498;50.880;12.096;2022-11-09T06:21:41;11.80;99.90
24374;DHT22;12498;50.880;12.096;2022-11-09T06:26:33;11.60;99.90
24374;DHT22;12498;50.880;12.096;2022-11-09T06:28:58;11.50;99.90
24374;DHT22;12498;50.880;12.096;2022-11-09T06:31:24;11.50;99.90
24374;DHT22;12498;50.880;12.096;2022-11-09T06:33:49;11.50;99.90
24374;DHT22;12498;50.880;12.096;2022-11-09T06:36:15;11.60;99.90
24374;DHT22;12498;50.880;12.096;2022-11-09T06:38:41;11.40;99.90
24374;DHT22;12498;50.880;12.096;2022-11-09T06:41:07;11.40;99.90
24374;DHT22;12498;50.880;12.096;2022-11-09T06:43:34;11.50;99.90
24374;DHT22;12498;50.880;12.096;2022-11-09T06:46:02;11.50;99.90
24374;DHT22;12498;50.880;12.096;2022-11-09T06:48:28;11.50;99.90
24374;DHT22;12498;50.880;12.096;2022-11-09T06:50:57;11.60;99.90
24374;DHT22;12498;50.880;12.096;2022-11-09T06:53:23;11.60;99.90
24374;DHT22;12498;50.880;12.096;2022-11-09T06:55:49;11.60;99.90
24374;DHT22;12498;50.880;12.096;2022-11-09T06:58:15;11.70;99.90
24374;DHT22;12498;50.880;12.096;2022-11-09T07:00:44;11.60;99.90
24374;DHT22;12498;50.880;12.096;2022-11-09T07:03:14;11.60;99.90
24374;DHT22;12498;50.880;12.096;2022-11-09T07:05:40;11.70;99.90
24374;DHT22;12498;50.880;12.096;2022-11-09T07:08:06;11.80;99.90
24374;DHT22;12498;50.880;12.096;2022-11-09T07:10:31;11.70;99.90
24374;DHT22;12498;50.880;12.096;2022-11-09T07:12:57;11.60;99.90
24374;DHT22;12498;50.880;12.096;2022-11-09T07:15:23;11.70;99.90
24374;DHT22;12498;50.880;12.096;2022-11-09T07:17:48;11.60;99.90
24374;DHT22;12498;50.880;12.096;2022-11-09T07:20:14;11.90;99.90
24374;DHT22;12498;50.880;12.096;2022-11-09T07:22:40;11.60;99.90
24374;DHT22;12498;50.880;12.096;2022-11-09T07:25:07;11.60;99.90
24374;DHT22;12498;50.880;12.096;2022-11-09T07:27:34;11.60;99.90
24374;DHT22;12498;50.880;12.096;2022-11-09T07:30:00;11.50;99.90
24374;DHT22;12498;50.880;12.096;2022-11-09T07:32:26;11.60;99.90
24374;DHT22;12498;50.880;12.096;2022-11-09T07:34:51;11.60;99.90
24374;DHT22;12498;50.880;12.096;2022-11-09T07:37:17;11.60;99.90
24374;DHT22;12498;50.880;12.096;2022-11-09T07:39:42;11.60;99.90
24374;DHT22;12498;50.880;12.096;2022-11-09T07:42:08;11.70;99.90
24374;DHT22;12498;50.880;12.096;2022-11-09T07:44:33;11.60;99.90
24374;DHT22;12498;50.880;12.096;2022-11-09T07:46:59;11.70;99.90
24374;DHT22;12498;50.880;12.096;2022-11-09T07:49:25;11.70;99.90
24374;DHT22;12498;50.880;12.096;2022-11-09T07:51:50;11.60;99.90
24374;DHT22;12498;50.880;12.096;2022-11-09T07:54:16;11.70;99.90
24374;DHT22;12498;50.880;12.096;2022-11-09T07:56:41;11.50;99.90
24374;DHT22;12498;50.880;12.096;2022-11-09T07:59:07;11.50;99.90
24374;DHT22;12498;50.880;12.096;2022-11-09T08:01:33;11.60;99.90
24374;DHT22;12498;50.880;12.096;2022-11-09T08:06:24;11.40;99.90
24374;DHT22;12498;50.880;12.096;2022-11-09T08:08:55;11.60;99.90
24374;DHT22;12498;50.880;12.096;2022-11-09T08:11:21;11.60;99.90
24374;DHT22;12498;50.880;12.096;2022-11-09T08:13:46;11.60;99.90
24374;DHT22;12498;50.880;12.096;2022-11-09T08:16:12;11.70;99.90
24374;DHT22;12498;50.880;12.096;2022-11-09T08:18:38;11.60;99.90
24374;DHT22;12498;50.880;12.096;2022-11-09T08:21:03;11.60;99.90
24374;DHT22;12498;50.880;12.096;2022-11-09T08:23:29;11.60;99.90
24374;DHT22;12498;50.880;12.096;2022-11-09T08:25:55;11.60;99.90
24374;DHT22;12498;50.880;12.096;2022-11-09T08:28:21;11.70;99.90
24374;DHT22;12498;50.880;12.096;2022-11-09T08:30:55;12.00;99.90
24374;DHT22;12498;50.880;12.096;2022-11-09T08:33:21;11.80;99.90
24374;DHT22;12498;50.880;12.096;2022-11-09T08:35:46;11.70;99.90
24374;DHT22;12498;50.880;12.096;2022-11-09T08:50:27;12.20;99.90
24374;DHT22;12498;50.880;12.096;2022-11-09T08:55:19;11.60;99.90
24374;DHT22;12498;50.880;12.096;2022-11-09T08:57:44;12.10;99.90
24374;DHT22;12498;50.880;12.096;2022-11-09T09:00:10;12.30;99.90
24374;DHT22;12498;50.880;12.096;2022-11-09T09:05:02;12.10;99.90
24374;DHT22;12498;50.880;12.096;2022-11-09T09:07:28;12.20;99.90
24374;DHT22;12498;50.880;12.096;2022-11-09T09:09:57;12.30;99.90
24374;DHT22;12498;50.880;12.096;2022-11-09T09:12:22;12.40;99.90
24374;DHT22;12498;50.880;12.096;2022-11-09T09:14:49;12.40;99.90
24374;DHT22;12498;50.880;12.096;2022-11-09T09:17:14;12.50;99.90
24374;DHT22;12498;50.880;12.096;2022-11-09T09:19:40;12.50;99.90
24374;DHT22;12498;50.880;12.096;2022-11-09T09:22:06;12.50;99.90
24374;DHT22;12498;50.880;12.096;2022-11-09T09:24:31;12.60;99.90
24374;DHT22;12498;50.880;12.096;2022-11-09T09:26:57;12.60;99.90
24374;DHT22;12498;50.880;12.096;2022-11-09T09:29:23;12.60;99.90
24374;DHT22;12498;50.880;12.096;2022-11-09T09:31:48;12.90;99.90
24374;DHT22;12498;50.880;12.096;2022-11-09T09:34:14;12.60;99.90
24374;DHT22;12498;50.880;12.096;2022-11-09T09:36:39;12.60;99.90
24374;DHT22;12498;50.880;12.096;2022-11-09T09:39:05;12.70;99.90
24374;DHT22;12498;50.880;12.096;2022-11-09T09:44:11;12.60;99.90
24374;DHT22;12498;50.880;12.096;2022-11-09T09:46:44;12.60;99.90
24374;DHT22;12498;50.880;12.096;2022-11-09T09:49:18;12.70;99.90
24374;DHT22;12498;50.880;12.096;2022-11-09T09:51:55;12.90;99.90
24374;DHT22;12498;50.880;12.096;2022-11-09T09:54:29;13.20;99.90
24374;DHT22;12498;50.880;12.096;2022-11-09T09:56:58;13.30;99.90
24374;DHT22;12498;50.880;12.096;2022-11-09T09:59:41;13.30;99.90
24374;DHT22;12498;50.880;12.096;2022-11-09T10:02:27;13.40;99.90
24374;DHT22;12498;50.880;12.096;2022-11-09T10:04:55;13.60;99.90
24374;DHT22;12498;50.880;12.096;2022-11-09T10:07:36;13.30;99.90
24374;DHT22;12498;50.880;12.096;2022-11-09T10:16:05;13.30;99.90
24374;DHT22;12498;50.880;12.096;2022-11-09T10:18:51;13.80;99.90
24374;DHT22;12498;50.880;12.096;2022-11-09T10:21:47;14.00;99.90
24374;DHT22;12498;50.880;12.096;2022-11-09T10:26:49;14.10;99.90
24374;DHT22;12498;50.880;12.096;2022-11-09T10:31:57;14.20;99.90
24374;DHT22;12498;50.880;12.096;2022-11-09T10:34:36;14.30;99.90
24374;DHT22;12498;50.880;12.096;2022-11-09T10:37:13;14.10;99.90
24374;DHT22;12498;50.880;12.096;2022-11-09T10:39:59;14.10;99.90
24374;DHT22;12498;50.880;12.096;2022-11-09T10:42:28;14.10;99.90
24374;DHT22;12498;50.880;12.096;2022-11-09T10:44:53;13.90;99.90
24374;DHT22;12498;50.880;12.096;2022-11-09T10:47:19;13.90;99.90
24374;DHT22;12498;50.880;12.096;2022-11-09T10:50:06;13.90;99.90
24374;DHT22;12498;50.880;12.096;2022-11-09T10:52:34;13.80;99.90
24374;DHT22;12498;50.880;12.096;2022-11-09T10:55:27;14.00;99.90
24374;DHT22;12498;50.880;12.096;2022-11-09T10:58:30;13.90;99.90
24374;DHT22;12498;50.880;12.096;2022-11-09T11:01:05;14.00;99.90
24374;DHT22;12498;50.880;12.096;2022-11-09T11:03:36;13.90;99.90
24374;DHT22;12498;50.880;12.096;2022-11-09T11:06:14;13.90;99.90
24374;DHT22;12498;50.880;12.096;2022-11-09T11:08:42;14.00;99.90
24374;DHT22;12498;50.880;12.096;2022-11-09T11:13:39;13.90;99.90
24374;DHT22;12498;50.880;12.096;2022-11-09T11:18:45;13.90;99.90
24374;DHT22;12498;50.880;12.096;2022-11-09T11:21:15;13.90;99.90
24374;DHT22;12498;50.880;12.096;2022-11-09T11:23:41;14.00;99.90
24374;DHT22;12498;50.880;12.096;2022-11-09T11:26:26;13.90;99.90
24374;DHT22;12498;50.880;12.096;2022-11-09T11:29:07;13.90;99.90
24374;DHT22;12498;50.880;12.096;2022-11-09T11:31:35;13.90;99.90
24374;DHT22;12498;50.880;12.096;2022-11-09T11:34:00;14.00;99.90
24374;DHT22;12498;50.880;12.096;2022-11-09T11:39:37;14.10;99.90
24374;DHT22;12498;50.880;12.096;2022-11-09T11:45:08;14.10;99.90
24374;DHT22;12498;50.880;12.096;2022-11-09T11:47:59;14.20;99.90
24374;DHT22;12498;50.880;12.096;2022-11-09T11:53:58;14.70;99.90
24374;DHT22;12498;50.880;12.096;2022-11-09T11:56:39;14.60;94.70
24374;DHT22;12498;50.880;12.096;2022-11-09T12:16:50;15.00;90.60
24374;DHT22;12498;50.880;12.096;2022-11-09T12:19:21;15.20;85.10
24374;DHT22;12498;50.880;12.096;2022-11-09T12:22:14;15.30;85.00
24374;DHT22;12498;50.880;12.096;2022-11-09T12:25:01;15.20;99.90
24374;DHT22;12498;50.880;12.096;2022-11-09T12:27:37;15.20;99.90
24374;DHT22;12498;50.880;12.096;2022-11-09T12:30:40;15.30;99.90
24374;DHT22;12498;50.880;12.096;2022-11-09T12:33:18;15.40;99.90
24374;DHT22;12498;50.880;12.096;2022-11-09T12:36:00;15.50;99.90
24374;DHT22;12498;50.880;12.096;2022-11-09T12:38:38;15.40;99.90
24374;DHT22;12498;50.880;12.096;2022-11-09T12:41:15;15.40;99.90
24374;DHT22;12498;50.880;12.096;2022-11-09T12:43:51;15.50;99.90
24374;DHT22;12498;50.880;12.096;2022-11-09T12:46:20;15.40;99.90
24374;DHT22;12498;50.880;12.096;2022-11-09T12:48:47;15.40;99.90
24374;DHT22;12498;50.880;12.096;2022-11-09T12:51:14;15.50;99.90
24374;DHT22;12498;50.880;12.096;2022-11-09T12:53:40;15.60;99.90
24374;DHT22;12498;50.880;12.096;2022-11-09T12:56:28;15.70;99.90
24374;DHT22;12498;50.880;12.096;2022-11-09T12:59:19;15.50;99.90
24374;DHT22;12498;50.880;12.096;2022-11-09T13:01:51;15.50;99.90
24374;DHT22;12498;50.880;12.096;2022-11-09T13:04:20;15.40;99.90
24374;DHT22;12498;50.880;12.096;2022-11-09T13:09:34;15.30;99.90
24374;DHT22;12498;50.880;12.096;2022-11-09T13:12:16;15.20;99.90
24374;DHT22;12498;50.880;12.096;2022-11-09T13:14:44;15.10;99.90
24374;DHT22;12498;50.880;12.096;2022-11-09T13:19:52;15.00;99.90
24374;DHT22;12498;50.880;12.096;2022-11-09T13:27:42;15.00;99.90
24374;DHT22;12498;50.880;12.096;2022-11-09T13:38:15;14.90;99.90
24374;DHT22;12498;50.880;12.096;2022-11-09T13:40:48;15.00;99.90
24374;DHT22;12498;50.880;12.096;2022-11-09T13:43:27;14.90;99.90
24374;DHT22;12498;50.880;12.096;2022-11-09T13:46:04;14.90;99.90
24374;DHT22;12498;50.880;12.096;2022-11-09T13:48:48;14.80;99.90
24374;DHT22;12498;50.880;12.096;2022-11-09T13:54:51;14.80;99.90
24374;DHT22;12498;50.880;12.096;2022-11-09T13:56:49;14.90;99.90
24374;DHT22;12498;50.880;12.096;2022-11-09T14:01:55;15.00;99.90
24374;DHT22;12498;50.880;12.096;2022-11-09T14:04:23;14.90;99.90
24374;DHT22;12498;50.880;12.096;2022-11-09T14:09:25;14.90;99.90
24374;DHT22;12498;50.880;12.096;2022-11-09T14:17:54;14.90;99.90
24374;DHT22;12498;50.880;12.096;2022-11-09T14:20:36;14.80;99.90
24374;DHT22;12498;50.880;12.096;2022-11-09T14:23:15;14.80;99.90
24374;DHT22;12498;50.880;12.096;2022-11-09T14:25:41;14.70;99.90
24374;DHT22;12498;50.880;12.096;2022-11-09T14:30:47;14.60;99.90
24374;DHT22;12498;50.880;12.096;2022-11-09T14:35:53;14.60;99.90
24374;DHT22;12498;50.880;12.096;2022-11-09T14:38:32;14.50;99.90
24374;DHT22;12498;50.880;12.096;2022-11-09T14:40:59;14.50;99.90
24374;DHT22;12498;50.880;12.096;2022-11-09T14:43:45;14.40;99.90
24374;DHT22;12498;50.880;12.096;2022-11-09T14:46:18;14.40;99.90
24374;DHT22;12498;50.880;12.096;2022-11-09T14:48:51;14.20;99.90
24374;DHT22;12498;50.880;12.096;2022-11-09T14:51:18;14.20;99.90
24374;DHT22;12498;50.880;12.096;2022-11-09T14:53:44;14.20;99.90
24374;DHT22;12498;50.880;12.096;2022-11-09T14:56:14;14.20;99.90
24374;DHT22;12498;50.880;12.096;2022-11-09T14:58:41;14.10;99.90
24374;DHT22;12498;50.880;12.096;2022-11-09T15:03:43;14.10;99.90
24374;DHT22;12498;50.880;12.096;2022-11-09T15:06:12;14.10;99.90
24374;DHT22;12498;50.880;12.096;2022-11-09T15:08:53;13.90;99.90
24374;DHT22;12498;50.880;12.096;2022-11-09T15:11:20;13.90;99.90
24374;DHT22;12498;50.880;12.096;2022-11-09T15:13:55;14.60;99.90
24374;DHT22;12498;50.880;12.096;2022-11-09T15:16:25;13.70;99.90
24374;DHT22;12498;50.880;12.096;2022-11-09T15:18:51;13.70;99.90
24374;DHT22;12498;50.880;12.096;2022-11-09T15:23:49;13.60;99.90
24374;DHT22;12498;50.880;12.096;2022-11-09T15:26:47;13.60;99.90
24374;DHT22;12498;50.880;12.096;2022-11-09T15:29:35;13.60;99.90
24374;DHT22;12498;50.880;12.096;2022-11-09T15:32:15;13.50;99.90
24374;DHT22;12498;50.880;12.096;2022-11-09T15:35:01;13.50;99.90
24374;DHT22;12498;50.880;12.096;2022-11-09T15:40:10;13.30;99.90
24374;DHT22;12498;50.880;12.096;2022-11-09T15:42:36;13.30;99.90
24374;DHT22;12498;50.880;12.096;2022-11-09T15:45:02;13.30;99.90
24374;DHT22;12498;50.880;12.096;2022-11-09T15:47:33;13.20;99.90
24374;DHT22;12498;50.880;12.096;2022-11-09T15:50:02;13.20;99.90
24374;DHT22;12498;50.880;12.096;2022-11-09T15:52:28;13.20;85.40
24374;DHT22;12498;50.880;12.096;2022-11-09T15:54:53;13.20;88.80
24374;DHT22;12498;50.880;12.096;2022-11-09T15:57:19;13.00;91.70
24374;DHT22;12498;50.880;12.096;2022-11-09T15:59:47;13.10;93.30
24374;DHT22;12498;50.880;12.096;2022-11-09T16:02:13;13.00;96.60
24374;DHT22;12498;50.880;12.096;2022-11-09T16:04:39;13.00;97.40
24374;DHT22;12498;50.880;12.096;2022-11-09T16:07:05;13.00;99.90
24374;DHT22;12498;50.880;12.096;2022-11-09T16:09:31;13.10;99.90
24374;DHT22;12498;50.880;12.096;2022-11-09T16:11:57;13.00;99.90
24374;DHT22;12498;50.880;12.096;2022-11-09T16:14:22;13.00;99.90
24374;DHT22;12498;50.880;12.096;2022-11-09T16:16:49;12.90;99.90
24374;DHT22;12498;50.880;12.096;2022-11-09T16:19:15;12.90;99.90
24374;DHT22;12498;50.880;12.096;2022-11-09T16:21:41;13.00;99.90
24374;DHT22;12498;50.880;12.096;2022-11-09T16:24:07;13.00;99.90
24374;DHT22;12498;50.880;12.096;2022-11-09T16:26:32;12.90;99.90
24374;DHT22;12498;50.880;12.096;2022-11-09T16:28:58;12.90;99.90
24374;DHT22;12498;50.880;12.096;2022-11-09T16:31:26;12.80;99.90
24374;DHT22;12498;50.880;12.096;2022-11-09T16:33:52;12.90;99.90
24374;DHT22;12498;50.880;12.096;2022-11-09T16:36:20;12.90;99.90
24374;DHT22;12498;50.880;12.096;2022-11-09T16:38:52;12.90;99.90
24374;DHT22;12498;50.880;12.096;2022-11-09T16:41:19;12.80;99.90
24374;DHT22;12498;50.880;12.096;2022-11-09T16:43:47;13.00;99.90
24374;DHT22;12498;50.880;12.096;2022-11-09T16:46:21;12.80;99.90
24374;DHT22;12498;50.880;12.096;2022-11-09T16:48:47;12.90;99.90
24374;DHT22;12498;50.880;12.096;2022-11-09T16:51:13;12.80;99.90
24374;DHT22;12498;50.880;12.096;2022-11-09T16:53:39;12.80;99.90
24374;DHT22;12498;50.880;12.096;2022-11-09T16:56:04;12.80;99.90
24374;DHT22;12498;50.880;12.096;2022-11-09T16:58:30;13.00;99.90
24374;DHT22;12498;50.880;12.096;2022-11-09T17:00:59;12.90;99.90
24374;DHT22;12498;50.880;12.096;2022-11-09T17:03:24;12.90;99.90
24374;DHT22;12498;50.880;12.096;2022-11-09T17:05:50;12.90;99.90
24374;DHT22;12498;50.880;12.096;2022-11-09T17:08:16;12.90;99.90
24374;DHT22;12498;50.880;12.096;2022-11-09T17:10:45;12.80;99.90
24374;DHT22;12498;50.880;12.096;2022-11-09T17:13:12;12.90;99.90
24374;DHT22;12498;50.880;12.096;2022-11-09T17:15:42;13.00;99.90
24374;DHT22;12498;50.880;12.096;2022-11-09T17:18:08;12.80;99.90
24374;DHT22;12498;50.880;12.096;2022-11-09T17:20:41;12.80;99.90
24374;DHT22;12498;50.880;12.096;2022-11-09T17:23:06;12.80;99.90
24374;DHT22;12498;50.880;12.096;2022-11-09T17:25:32;12.90;99.90
24374;DHT22;12498;50.880;12.096;2022-11-09T17:27:58;12.80;99.90
24374;DHT22;12498;50.880;12.096;2022-11-09T17:30:23;13.00;99.90
24374;DHT22;12498;50.880;12.096;2022-11-09T17:32:49;12.80;99.90
24374;DHT22;12498;50.880;12.096;2022-11-09T17:35:15;12.80;99.90
24374;DHT22;12498;50.880;12.096;2022-11-09T17:37:41;12.80;99.90
24374;DHT22;12498;50.880;12.096;2022-11-09T17:40:07;12.70;99.90
24374;DHT22;12498;50.880;12.096;2022-11-09T17:42:33;12.80;99.90
24374;DHT22;12498;50.880;12.096;2022-11-09T17:44:59;12.70;99.90
24374;DHT22;12498;50.880;12.096;2022-11-09T17:47:25;12.70;99.90
24374;DHT22;12498;50.880;12.096;2022-11-09T17:49:50;12.70;99.90
24374;DHT22;12498;50.880;12.096;2022-11-09T17:52:16;12.60;99.90
24374;DHT22;12498;50.880;12.096;2022-11-09T17:54:42;12.70;99.90
24374;DHT22;12498;50.880;12.096;2022-11-09T17:57:07;12.70;99.90
24374;DHT22;12498;50.880;12.096;2022-11-09T17:59:33;12.70;99.90
24374;DHT22;12498;50.880;12.096;2022-11-09T18:01:58;12.70;99.90
24374;DHT22;12498;50.880;12.096;2022-11-09T18:04:24;12.50;99.90
24374;DHT22;12498;50.880;12.096;2022-11-09T18:06:50;12.60;99.90
24374;DHT22;12498;50.880;12.096;2022-11-09T18:09:15;12.70;99.90
24374;DHT22;12498;50.880;12.096;2022-11-09T18:11:41;12.50;99.90
24374;DHT22;12498;50.880;12.096;2022-11-09T18:14:08;12.60;99.90
24374;DHT22;12498;50.880;12.096;2022-11-09T18:16:36;12.50;99.90
24374;DHT22;12498;50.880;12.096;2022-11-09T18:19:02;12.50;99.90
24374;DHT22;12498;50.880;12.096;2022-11-09T18:21:29;12.60;99.90
24374;DHT22;12498;50.880;12.096;2022-11-09T18:23:54;12.50;99.90
24374;DHT22;12498;50.880;12.096;2022-11-09T18:26:20;12.50;99.90